createdAt,value
2019-05-10T00:00:27.082Z,7.13
2019-05-10T00:05:48.067Z,9.77
2019-05-10T00:10:52.183Z,7.27
2019-05-10T00:15:53.742Z,8.23
2019-05-10T00:20:55.260Z,8.23
2019-05-10T00:25:57.123Z,5.87
2019-05-10T00:30:58.641Z,8.33
2019-05-10T00:36:00.093Z,7.73
2019-05-10T00:41:01.552Z,7.60
2019-05-10T00:46:03.203Z,9.33
2019-05-10T00:51:04.830Z,10.40
2019-05-10T00:56:06.263Z,8.00
2019-05-10T01:01:07.914Z,7.20
2019-05-10T01:06:09.718Z,11.17
2019-05-10T01:11:11.261Z,8.60
2019-05-10T01:16:12.701Z,7.73
2019-05-10T01:21:14.289Z,12.70
2019-05-10T01:26:15.747Z,8.73
2019-05-10T01:31:18.070Z,7.07
2019-05-10T01:36:22.371Z,6.97
2019-05-10T01:41:23.846Z,9.43
2019-05-10T01:46:25.304Z,7.97
2019-05-10T01:51:27.947Z,10.47
2019-05-10T01:56:29.682Z,8.33
2019-05-10T02:01:31.279Z,9.00
2019-05-10T02:06:32.712Z,7.97
2019-05-10T02:11:34.287Z,7.60
2019-05-10T02:16:35.740Z,8.67
2019-05-10T02:21:37.491Z,7.23
2019-05-10T02:26:39.046Z,7.57
2019-05-10T02:31:40.570Z,9.23
2019-05-10T02:36:42.465Z,7.77
2019-05-10T02:41:43.975Z,9.53
2019-05-10T02:46:45.481Z,7.80
2019-05-10T02:51:46.994Z,7.63
2019-05-10T02:56:51.248Z,8.67
2019-05-10T03:01:55.395Z,8.63
2019-05-10T03:07:04.883Z,8.70
2019-05-10T03:12:25.172Z,8.93
2019-05-10T03:17:27.520Z,7.10
2019-05-10T03:22:34.755Z,7.77
2019-05-10T03:27:37.193Z,9.20
2019-05-10T03:32:38.657Z,7.43
2019-05-10T03:37:40.624Z,7.23
2019-05-10T03:42:42.345Z,8.57
2019-05-10T03:47:43.817Z,9.73
2019-05-10T03:52:45.347Z,7.73
2019-05-10T03:57:46.798Z,6.33
2019-05-10T04:02:48.850Z,9.03
2019-05-10T04:07:50.319Z,9.37
2019-05-10T04:12:51.869Z,8.03
2019-05-10T04:17:53.375Z,7.00
2019-05-10T04:22:54.948Z,6.97
2019-05-10T04:27:56.495Z,6.97
2019-05-10T04:32:57.951Z,10.40
2019-05-10T04:37:59.414Z,6.57
2019-05-10T04:43:00.875Z,7.27
2019-05-10T04:48:02.437Z,6.43
2019-05-10T04:53:03.955Z,6.43
2019-05-10T04:58:05.810Z,6.80
2019-05-10T05:03:07.617Z,6.30
2019-05-10T05:08:09.068Z,4.83
2019-05-10T05:13:10.544Z,5.57
2019-05-10T05:18:12.304Z,3.40
2019-05-10T05:23:13.769Z,7.80
2019-05-10T05:28:18.439Z,4.97
2019-05-10T05:33:18.751Z,4.63
2019-05-10T05:38:20.274Z,8.03
2019-05-10T05:43:21.803Z,5.87
2019-05-10T05:48:38.456Z,6.37
2019-05-10T05:53:26.671Z,7.13
2019-05-10T05:58:28.124Z,4.70
2019-05-10T06:03:30.002Z,4.47
2019-05-10T06:08:31.618Z,4.33
2019-05-10T06:13:33.215Z,4.40
2019-05-10T06:18:34.673Z,4.97
2019-05-10T06:23:36.896Z,4.97
2019-05-10T06:33:45.064Z,9.60
2019-05-10T06:38:45.583Z,5.93
2019-05-10T06:43:51.491Z,5.83
2019-05-10T06:48:50.495Z,6.90
2019-05-10T06:53:53.756Z,6.70
2019-05-10T06:58:55.301Z,4.57
2019-05-10T07:03:56.755Z,9.20
2019-05-10T07:08:59.550Z,5.03
2019-05-10T07:14:01.187Z,4.00
2019-05-10T07:19:02.751Z,5.90
2019-05-10T07:24:04.205Z,3.23
2019-05-10T07:29:05.647Z,3.13
2019-05-10T07:34:09.853Z,4.70
2019-05-10T07:39:10.774Z,4.10
2019-05-10T07:44:12.434Z,3.03
2019-05-10T07:49:13.887Z,3.57
2019-05-10T07:54:15.437Z,2.63
2019-05-10T07:59:22.090Z,5.90
2019-05-10T08:04:28.900Z,3.57
2019-05-10T08:09:24.185Z,2.33
2019-05-10T08:14:25.814Z,3.73
2019-05-10T08:19:27.334Z,3.07
2019-05-10T08:24:28.859Z,3.10
2019-05-10T08:29:32.858Z,3.60
2019-05-10T08:34:35.691Z,3.50
2019-05-10T08:39:45.238Z,5.57
2019-05-10T08:44:42.605Z,2.90
2019-05-10T08:49:57.466Z,3.30
2019-05-10T08:54:47.312Z,4.63
2019-05-10T08:59:54.136Z,3.50
2019-05-10T09:04:52.978Z,3.57
2019-05-10T09:09:54.587Z,6.53
2019-05-10T09:15:05.709Z,4.60
2019-05-10T09:19:59.399Z,7.90
2019-05-10T09:25:01.789Z,8.40
2019-05-10T09:30:08.160Z,7.73
2019-05-10T09:35:09.464Z,9.10
2019-05-10T09:40:13.439Z,10.60
2019-05-10T09:45:15.610Z,8.30
2019-05-10T09:50:17.650Z,13.30
2019-05-10T09:55:19.099Z,13.27
2019-05-10T10:00:31.285Z,11.70
2019-05-10T10:05:32.745Z,17.13
2019-05-10T10:10:34.199Z,12.90
2019-05-10T10:15:37.324Z,15.33
2019-05-10T10:20:43.515Z,20.07
2019-05-10T10:25:42.751Z,20.40
2019-05-10T10:30:44.200Z,26.07
2019-05-10T10:35:47.926Z,19.00
2019-05-10T10:40:49.087Z,13.23
2019-05-10T10:45:50.543Z,16.27
2019-05-10T10:50:55.709Z,22.30
2019-05-10T10:56:00.673Z,22.27
2019-05-10T11:00:58.783Z,25.00
2019-05-10T11:06:00.257Z,22.13
2019-05-10T11:11:02.124Z,20.93
2019-05-10T11:16:09.983Z,17.07
2019-05-10T11:21:07.038Z,17.50
2019-05-10T11:26:10.730Z,17.20
2019-05-10T11:31:12.390Z,17.77
2019-05-10T11:36:13.842Z,16.40
2019-05-10T11:41:21.231Z,21.63
2019-05-10T11:46:20.899Z,16.50
2019-05-10T11:51:22.291Z,21.30
2019-05-10T11:56:27.549Z,14.50
2019-05-10T12:01:27.091Z,10.93
2019-05-10T12:06:28.598Z,6.70
2019-05-10T12:11:33.952Z,5.37
2019-05-10T12:16:33.796Z,6.70
2019-05-10T12:21:35.294Z,7.77
2019-05-10T12:31:41.520Z,5.23
2019-05-10T12:36:43.559Z,5.03
2019-05-10T12:41:49.613Z,6.43
2019-05-10T12:46:50.911Z,6.63
2019-05-10T12:51:52.148Z,7.63
2019-05-10T12:56:53.659Z,6.53
2019-05-10T13:01:58.142Z,7.23
2019-05-10T13:06:58.574Z,7.17
2019-05-10T13:12:03.898Z,4.53
2019-05-10T13:17:09.127Z,6.27
2019-05-10T13:22:07.550Z,4.37
2019-05-10T13:27:09.204Z,5.67
2019-05-10T13:32:14.902Z,3.40
2019-05-10T13:37:23.414Z,3.50
2019-05-10T13:42:17.486Z,3.93
2019-05-10T13:47:19.025Z,3.27
2019-05-10T13:52:20.941Z,2.40
2019-05-10T13:57:22.544Z,3.80
2019-05-10T14:02:32.599Z,3.33
2019-05-10T14:07:27.917Z,4.30
2019-05-10T14:12:29.382Z,3.50
2019-05-10T14:17:30.833Z,4.50
2019-05-10T14:22:32.275Z,5.10
2019-05-10T14:27:36.030Z,4.70
2019-05-10T14:32:37.401Z,5.47
2019-05-10T14:37:38.866Z,7.67
2019-05-10T14:42:40.355Z,9.00
2019-05-10T14:47:47.954Z,7.80
2019-05-10T14:52:45.249Z,6.37
2019-05-10T14:57:46.700Z,6.17
2019-05-10T15:02:48.079Z,6.20
2019-05-10T15:07:51.146Z,5.00
2019-05-10T15:12:52.889Z,7.93
2019-05-10T15:18:01.992Z,7.97
2019-05-10T15:22:57.698Z,9.27
2019-05-10T15:28:00.167Z,6.00
2019-05-10T15:33:02.728Z,7.10
2019-05-10T15:38:04.106Z,8.30
2019-05-10T15:43:10.573Z,7.13
2019-05-10T15:48:09.352Z,5.27
2019-05-10T15:53:11.014Z,4.70
2019-05-10T15:58:12.643Z,4.90
2019-05-10T16:03:14.206Z,4.83
2019-05-10T16:08:15.693Z,4.13
2019-05-10T16:13:23.326Z,6.53
2019-05-10T16:18:20.718Z,4.00
2019-05-10T16:23:22.166Z,1.93
2019-05-10T16:28:23.618Z,1.47
2019-05-10T16:33:25.058Z,2.93
2019-05-10T16:38:26.672Z,4.07
2019-05-10T16:43:28.479Z,1.80
2019-05-10T16:48:29.957Z,3.07
2019-05-10T16:53:31.592Z,2.80
2019-05-10T16:58:33.343Z,3.10
2019-05-10T17:03:34.859Z,2.27
2019-05-10T17:08:38.641Z,3.93
2019-05-10T17:13:41.655Z,2.53
2019-05-10T17:18:43.562Z,5.63
2019-05-10T17:23:46.711Z,2.63
2019-05-10T17:28:48.657Z,2.60
2019-05-10T17:33:50.127Z,2.63
2019-05-10T17:38:53.787Z,2.50
2019-05-10T17:43:55.177Z,2.30
2019-05-10T17:48:56.622Z,2.40
2019-05-10T17:54:01.360Z,1.90
2019-05-10T17:59:05.755Z,2.00
2019-05-10T18:04:05.400Z,2.90
2019-05-10T18:09:06.928Z,3.70
2019-05-10T18:14:12.456Z,2.20
2019-05-10T18:19:11.849Z,6.83
2019-05-10T18:24:13.302Z,4.70
2019-05-10T18:29:14.756Z,2.93
2019-05-10T18:34:16.338Z,2.83
2019-05-10T18:39:17.936Z,2.57
2019-05-10T18:44:20.115Z,2.53
2019-05-10T18:49:21.983Z,2.60
2019-05-10T18:54:23.544Z,2.47
2019-05-10T18:59:25.037Z,2.80
2019-05-10T19:04:26.477Z,4.07
2019-05-10T19:09:27.956Z,4.20
2019-05-10T19:14:29.956Z,3.07
2019-05-10T19:19:35.228Z,2.93
2019-05-10T19:24:36.065Z,4.10
2019-05-10T19:29:38.566Z,3.80
2019-05-10T19:34:41.157Z,4.43
2019-05-10T19:39:42.689Z,4.10
2019-05-10T19:44:44.315Z,3.87
2019-05-10T19:49:51.213Z,5.80
2019-05-10T19:54:49.599Z,5.43
2019-05-10T19:59:51.128Z,6.30
2019-05-10T20:04:52.584Z,5.90
2019-05-10T20:09:54.453Z,5.07
2019-05-10T20:14:55.941Z,5.60
2019-05-10T20:19:57.390Z,5.70
2019-05-10T20:24:59.029Z,6.87
2019-05-10T20:30:00.566Z,6.33
2019-05-10T20:35:05.219Z,5.63
2019-05-10T20:40:07.454Z,6.63
2019-05-10T20:45:09.610Z,7.23
2019-05-10T20:50:11.942Z,7.40
2019-05-10T20:55:13.772Z,6.87
2019-05-10T21:00:15.530Z,6.23
2019-05-10T21:05:16.997Z,8.17
2019-05-10T21:10:18.606Z,7.83
2019-05-10T21:15:20.050Z,8.60
2019-05-10T21:20:21.566Z,10.80
2019-05-10T21:25:23.968Z,7.43
2019-05-10T21:30:25.665Z,9.30
2019-05-10T21:35:27.334Z,7.23
2019-05-10T21:40:28.919Z,10.97
2019-05-10T21:45:30.599Z,7.27
2019-05-10T21:50:32.087Z,6.93
2019-05-10T21:55:33.764Z,8.73
2019-05-10T22:00:37.660Z,5.73
2019-05-10T22:05:39.504Z,6.07
2019-05-10T22:10:40.989Z,6.37
2019-05-10T22:15:42.643Z,8.47
2019-05-10T22:20:44.235Z,7.10
2019-05-10T22:25:45.717Z,6.73
2019-05-10T22:30:47.253Z,10.47
2019-05-10T22:35:48.750Z,12.70
2019-05-10T22:40:50.464Z,10.93
2019-05-10T22:45:51.994Z,8.87
2019-05-10T22:50:53.493Z,7.50
2019-05-10T22:55:55.206Z,9.00
2019-05-10T23:00:56.893Z,7.30
2019-05-10T23:05:59.014Z,7.13
2019-05-10T23:11:01.319Z,6.87
2019-05-10T23:16:03.097Z,7.13
2019-05-10T23:21:04.695Z,6.77
2019-05-10T23:26:06.172Z,7.77
2019-05-10T23:31:07.655Z,7.00
2019-05-10T23:36:09.152Z,7.73
2019-05-10T23:41:10.671Z,7.43
2019-05-10T23:46:12.154Z,7.47
2019-05-10T23:51:13.654Z,7.33
2019-05-10T23:56:15.299Z,8.27
